sensor_id;sensor_type;location;lat;lon;timestamp;pressure;altitude;pressure_sealevel;temperature;humidity
62237;BME280;69163;48.778;2.308;2023-08-30T00:01:31;100317.46;;;20.15;40.88
62237;BME280;69163;48.778;2.308;2023-08-30T00:03:56;100314.55;;;20.16;40.87
62237;BME280;69163;48.778;2.308;2023-08-30T00:06:21;100309.89;;;20.03;41.03
62237;BME280;69163;48.778;2.308;2023-08-30T00:08:46;100307.14;;;19.67;40.85
62237;BME280;69163;48.778;2.308;2023-08-30T00:11:12;100304.50;;;20.11;40.91
62237;BME280;69163;48.778;2.308;2023-08-30T00:13:38;100304.22;;;20.01;41.05
62237;BME280;69163;48.778;2.308;2023-08-30T00:16:02;100308.19;;;20.13;40.92
62237;BME280;69163;48.778;2.308;2023-08-30T00:18:28;100307.40;;;20.19;40.83
62237;BME280;69163;48.778;2.308;2023-08-30T00:20:58;100300.02;;;20.08;40.95
62237;BME280;69163;48.778;2.308;2023-08-30T00:23:18;100301.89;;;19.94;40.84
62237;BME280;69163;48.778;2.308;2023-08-30T00:25:43;100298.36;;;19.94;40.82
62237;BME280;69163;48.778;2.308;2023-08-30T00:28:08;100293.09;;;19.82;40.98
62237;BME280;69163;48.778;2.308;2023-08-30T00:30:33;100294.82;;;19.90;40.85
62237;BME280;69163;48.778;2.308;2023-08-30T00:32:59;100295.65;;;20.10;40.90
62237;BME280;69163;48.778;2.308;2023-08-30T00:35:24;100292.70;;;20.13;40.85
62237;BME280;69163;48.778;2.308;2023-08-30T00:37:49;100284.10;;;20.11;40.83
62237;BME280;69163;48.778;2.308;2023-08-30T00:40:14;100280.98;;;20.10;40.86
62237;BME280;69163;48.778;2.308;2023-08-30T00:42:40;100281.09;;;19.84;40.88
62237;BME280;69163;48.778;2.308;2023-08-30T00:45:06;100279.96;;;19.82;40.92
62237;BME280;69163;48.778;2.308;2023-08-30T00:47:30;100276.39;;;20.08;40.91
62237;BME280;69163;48.778;2.308;2023-08-30T00:49:55;100277.55;;;20.01;40.94
62237;BME280;69163;48.778;2.308;2023-08-30T00:52:20;100274.63;;;20.05;40.91
62237;BME280;69163;48.778;2.308;2023-08-30T00:54:45;100269.46;;;20.06;40.88
62237;BME280;69163;48.778;2.308;2023-08-30T00:57:11;100266.27;;;20.08;40.86
62237;BME280;69163;48.778;2.308;2023-08-30T00:59:37;100261.52;;;19.80;40.89
62237;BME280;69163;48.778;2.308;2023-08-30T01:02:02;100260.86;;;20.13;40.79
62237;BME280;69163;48.778;2.308;2023-08-30T01:04:27;100259.84;;;20.17;40.74
62237;BME280;69163;48.778;2.308;2023-08-30T01:06:52;100258.93;;;20.22;40.68
62237;BME280;69163;48.778;2.308;2023-08-30T01:09:17;100256.91;;;20.14;40.75
62237;BME280;69163;48.778;2.308;2023-08-30T01:11:49;100255.64;;;19.93;40.71
62237;BME280;69163;48.778;2.308;2023-08-30T01:14:09;100252.48;;;19.95;40.68
62237;BME280;69163;48.778;2.308;2023-08-30T01:16:32;100248.51;;;19.81;40.82
62237;BME280;69163;48.778;2.308;2023-08-30T01:18:59;100243.63;;;19.78;40.94
62237;BME280;69163;48.778;2.308;2023-08-30T01:21:30;100242.55;;;20.04;40.84
62237;BME280;69163;48.778;2.308;2023-08-30T01:23:52;100237.79;;;19.79;40.88
62237;BME280;69163;48.778;2.308;2023-08-30T01:26:20;100235.81;;;19.86;40.78
62237;BME280;69163;48.778;2.308;2023-08-30T01:28:39;100229.81;;;20.03;40.90
62237;BME280;69163;48.778;2.308;2023-08-30T01:31:04;100227.85;;;19.72;40.99
62237;BME280;69163;48.778;2.308;2023-08-30T01:33:29;100230.49;;;19.97;40.98
62237;BME280;69163;48.778;2.308;2023-08-30T01:35:55;100234.51;;;19.66;41.07
62237;BME280;69163;48.778;2.308;2023-08-30T01:38:19;100229.86;;;19.96;40.98
62237;BME280;69163;48.778;2.308;2023-08-30T01:40:45;100229.95;;;19.77;40.91
62237;BME280;69163;48.778;2.308;2023-08-30T01:43:09;100227.10;;;20.05;40.87
62237;BME280;69163;48.778;2.308;2023-08-30T01:45:38;100224.85;;;19.77;40.90
62237;BME280;69163;48.778;2.308;2023-08-30T01:47:59;100224.47;;;19.90;41.07
62237;BME280;69163;48.778;2.308;2023-08-30T01:50:26;100220.74;;;20.04;40.88
62237;BME280;69163;48.778;2.308;2023-08-30T01:52:50;100219.69;;;19.80;40.87
62237;BME280;69163;48.778;2.308;2023-08-30T01:55:15;100223.23;;;20.01;40.90
62237;BME280;69163;48.778;2.308;2023-08-30T01:57:40;100220.30;;;19.70;40.97
62237;BME280;69163;48.778;2.308;2023-08-30T02:00:07;100216.56;;;19.90;41.02
62237;BME280;69163;48.778;2.308;2023-08-30T02:02:31;100215.33;;;19.73;41.29
62237;BME280;69163;48.778;2.308;2023-08-30T02:04:56;100211.20;;;19.83;41.16
62237;BME280;69163;48.778;2.308;2023-08-30T02:07:25;100210.30;;;19.84;41.10
62237;BME280;69163;48.778;2.308;2023-08-30T02:09:50;100211.80;;;19.95;41.01
62237;BME280;69163;48.778;2.308;2023-08-30T02:12:14;100212.66;;;19.87;41.10
62237;BME280;69163;48.778;2.308;2023-08-30T02:14:39;100211.11;;;19.85;41.11
62237;BME280;69163;48.778;2.308;2023-08-30T02:17:03;100211.84;;;19.88;41.07
62237;BME280;69163;48.778;2.308;2023-08-30T02:19:27;100211.07;;;19.89;41.04
62237;BME280;69163;48.778;2.308;2023-08-30T02:21:52;100212.15;;;19.70;41.00
62237;BME280;69163;48.778;2.308;2023-08-30T02:24:18;100211.17;;;19.84;41.11
62237;BME280;69163;48.778;2.308;2023-08-30T02:26:43;100213.84;;;19.64;41.05
62237;BME280;69163;48.778;2.308;2023-08-30T02:29:09;100209.85;;;19.90;41.00
62237;BME280;69163;48.778;2.308;2023-08-30T02:31:34;100210.35;;;19.92;41.01
62237;BME280;69163;48.778;2.308;2023-08-30T02:33:59;100208.20;;;19.83;41.09
62237;BME280;69163;48.778;2.308;2023-08-30T02:36:24;100208.49;;;19.91;41.01
62237;BME280;69163;48.778;2.308;2023-08-30T02:38:49;100208.27;;;19.90;41.01
62237;BME280;69163;48.778;2.308;2023-08-30T02:41:14;100206.67;;;19.96;40.91
62237;BME280;69163;48.778;2.308;2023-08-30T02:43:40;100203.29;;;19.64;41.05
62237;BME280;69163;48.778;2.308;2023-08-30T02:46:05;100200.27;;;20.10;41.07
62237;BME280;69163;48.778;2.308;2023-08-30T02:48:30;100198.40;;;19.86;41.06
62237;BME280;69163;48.778;2.308;2023-08-30T02:50:55;100196.96;;;19.76;41.22
62237;BME280;69163;48.778;2.308;2023-08-30T02:53:21;100199.50;;;19.83;41.14
62237;BME280;69163;48.778;2.308;2023-08-30T02:55:47;100203.65;;;19.75;41.21
62237;BME280;69163;48.778;2.308;2023-08-30T02:58:11;100204.43;;;19.77;41.24
62237;BME280;69163;48.778;2.308;2023-08-30T03:00:37;100203.95;;;19.72;41.32
62237;BME280;69163;48.778;2.308;2023-08-30T03:03:02;100204.09;;;19.81;41.20
62237;BME280;69163;48.778;2.308;2023-08-30T03:05:27;100202.56;;;19.87;41.06
62237;BME280;69163;48.778;2.308;2023-08-30T03:07:53;100200.02;;;19.84;41.10
62237;BME280;69163;48.778;2.308;2023-08-30T03:10:17;100198.93;;;19.88;41.05
62237;BME280;69163;48.778;2.308;2023-08-30T03:12:42;100202.37;;;19.82;41.15
62237;BME280;69163;48.778;2.308;2023-08-30T03:15:08;100203.49;;;19.71;41.33
62237;BME280;69163;48.778;2.308;2023-08-30T03:17:33;100200.17;;;19.78;41.22
62237;BME280;69163;48.778;2.308;2023-08-30T03:19:58;100195.60;;;19.63;41.44
62237;BME280;69163;48.778;2.308;2023-08-30T03:22:23;100199.29;;;19.77;41.26
62237;BME280;69163;48.778;2.308;2023-08-30T03:24:48;100197.47;;;19.80;41.20
62237;BME280;69163;48.778;2.308;2023-08-30T03:27:13;100199.38;;;19.71;41.33
62237;BME280;69163;48.778;2.308;2023-08-30T03:29:39;100196.59;;;19.77;41.26
62237;BME280;69163;48.778;2.308;2023-08-30T03:32:05;100194.48;;;19.73;41.28
62237;BME280;69163;48.778;2.308;2023-08-30T03:34:29;100194.67;;;19.70;41.35
62237;BME280;69163;48.778;2.308;2023-08-30T03:36:54;100194.72;;;19.71;41.30
62237;BME280;69163;48.778;2.308;2023-08-30T03:39:19;100192.31;;;19.38;41.47
62237;BME280;69163;48.778;2.308;2023-08-30T03:41:45;100187.30;;;20.16;41.39
62237;BME280;69163;48.778;2.308;2023-08-30T03:44:10;100188.37;;;20.00;41.27
62237;BME280;69163;48.778;2.308;2023-08-30T03:46:36;100187.90;;;19.68;41.37
62237;BME280;69163;48.778;2.308;2023-08-30T03:49:00;100188.99;;;19.79;41.21
62237;BME280;69163;48.778;2.308;2023-08-30T03:51:25;100186.62;;;19.65;41.42
62237;BME280;69163;48.778;2.308;2023-08-30T03:53:51;100187.08;;;19.77;41.26
62237;BME280;69163;48.778;2.308;2023-08-30T03:56:16;100188.35;;;19.71;41.33
62237;BME280;69163;48.778;2.308;2023-08-30T03:58:41;100188.14;;;19.61;41.48
62237;BME280;69163;48.778;2.308;2023-08-30T04:01:06;100189.11;;;19.86;41.49
62237;BME280;69163;48.778;2.308;2023-08-30T04:03:32;100188.90;;;19.64;41.45
62237;BME280;69163;48.778;2.308;2023-08-30T04:05:57;100182.47;;;19.71;41.34
62237;BME280;69163;48.778;2.308;2023-08-30T04:08:22;100179.46;;;19.74;41.27
62237;BME280;69163;48.778;2.308;2023-08-30T04:10:47;100175.23;;;19.85;41.13
62237;BME280;69163;48.778;2.308;2023-08-30T04:13:13;100174.03;;;19.80;41.20
62237;BME280;69163;48.778;2.308;2023-08-30T04:15:39;100176.43;;;19.61;41.15
62237;BME280;69163;48.778;2.308;2023-08-30T04:18:04;100179.27;;;19.84;41.18
62237;BME280;69163;48.778;2.308;2023-08-30T04:20:28;100184.47;;;19.50;41.36
62237;BME280;69163;48.778;2.308;2023-08-30T04:22:53;100181.74;;;19.55;41.29
62237;BME280;69163;48.778;2.308;2023-08-30T04:25:18;100178.97;;;19.56;41.25
62237;BME280;69163;48.778;2.308;2023-08-30T04:27:44;100180.74;;;19.84;41.22
62237;BME280;69163;48.778;2.308;2023-08-30T04:30:11;100175.93;;;19.92;41.10
62237;BME280;69163;48.778;2.308;2023-08-30T04:32:34;100171.45;;;19.99;40.98
62237;BME280;69163;48.778;2.308;2023-08-30T04:34:59;100164.63;;;19.90;41.08
62237;BME280;69163;48.778;2.308;2023-08-30T04:37:24;100163.57;;;19.63;41.17
62237;BME280;69163;48.778;2.308;2023-08-30T04:39:50;100160.39;;;19.81;41.27
62237;BME280;69163;48.778;2.308;2023-08-30T04:42:15;100158.82;;;19.77;41.33
62237;BME280;69163;48.778;2.308;2023-08-30T04:44:40;100158.36;;;19.56;41.33
62237;BME280;69163;48.778;2.308;2023-08-30T04:47:05;100155.24;;;19.76;41.34
62237;BME280;69163;48.778;2.308;2023-08-30T04:49:30;100149.35;;;19.79;41.27
62237;BME280;69163;48.778;2.308;2023-08-30T04:51:56;100149.80;;;19.70;41.44
62237;BME280;69163;48.778;2.308;2023-08-30T04:54:21;100149.61;;;19.72;41.42
62237;BME280;69163;48.778;2.308;2023-08-30T04:56:46;100146.02;;;19.64;41.52
62237;BME280;69163;48.778;2.308;2023-08-30T04:59:11;100142.14;;;19.66;41.49
62237;BME280;69163;48.778;2.308;2023-08-30T05:01:37;100144.10;;;19.59;41.64
62237;BME280;69163;48.778;2.308;2023-08-30T05:04:02;100142.68;;;19.35;41.65
62237;BME280;69163;48.778;2.308;2023-08-30T05:06:27;100143.80;;;19.62;41.60
62237;BME280;69163;48.778;2.308;2023-08-30T05:08:52;100144.46;;;19.68;41.50
62237;BME280;69163;48.778;2.308;2023-08-30T05:11:17;100142.81;;;19.61;41.62
62237;BME280;69163;48.778;2.308;2023-08-30T05:13:43;100138.84;;;19.44;41.51
62237;BME280;69163;48.778;2.308;2023-08-30T05:16:08;100135.46;;;19.71;41.47
62237;BME280;69163;48.778;2.308;2023-08-30T05:18:33;100133.18;;;19.69;41.52
62237;BME280;69163;48.778;2.308;2023-08-30T05:20:58;100130.28;;;19.60;41.63
62237;BME280;69163;48.778;2.308;2023-08-30T05:23:23;100129.79;;;19.62;41.63
62237;BME280;69163;48.778;2.308;2023-08-30T05:25:48;100130.34;;;19.13;41.67
62237;BME280;69163;48.778;2.308;2023-08-30T05:28:13;100129.95;;;19.26;41.83
62237;BME280;69163;48.778;2.308;2023-08-30T05:30:42;100131.96;;;19.62;41.65
62237;BME280;69163;48.778;2.308;2023-08-30T05:33:04;100131.49;;;19.75;41.48
62237;BME280;69163;48.778;2.308;2023-08-30T05:35:30;100129.78;;;19.74;41.51
62237;BME280;69163;48.778;2.308;2023-08-30T05:37:54;100135.18;;;19.74;41.48
62237;BME280;69163;48.778;2.308;2023-08-30T05:40:20;100139.52;;;19.74;41.51
62237;BME280;69163;48.778;2.308;2023-08-30T05:42:45;100141.16;;;19.65;41.63
62237;BME280;69163;48.778;2.308;2023-08-30T05:45:10;100141.67;;;19.42;41.62
62237;BME280;69163;48.778;2.308;2023-08-30T05:47:36;100141.25;;;19.66;41.64
62237;BME280;69163;48.778;2.308;2023-08-30T05:50:01;100139.09;;;19.76;41.48
62237;BME280;69163;48.778;2.308;2023-08-30T05:52:26;100136.52;;;19.74;41.51
62237;BME280;69163;48.778;2.308;2023-08-30T05:54:51;100138.23;;;19.79;41.48
62237;BME280;69163;48.778;2.308;2023-08-30T05:57:16;100142.12;;;19.86;41.34
62237;BME280;69163;48.778;2.308;2023-08-30T05:59:41;100145.14;;;19.55;41.46
62237;BME280;69163;48.778;2.308;2023-08-30T06:02:06;100146.88;;;19.69;41.64
62237;BME280;69163;48.778;2.308;2023-08-30T06:04:32;100151.84;;;19.60;41.74
62237;BME280;69163;48.778;2.308;2023-08-30T06:06:57;100153.60;;;19.57;41.83
62237;BME280;69163;48.778;2.308;2023-08-30T06:09:23;100157.03;;;19.46;42.01
62237;BME280;69163;48.778;2.308;2023-08-30T06:11:47;100155.85;;;19.03;41.95
62237;BME280;69163;48.778;2.308;2023-08-30T06:14:13;100160.49;;;19.80;41.85
62237;BME280;69163;48.778;2.308;2023-08-30T06:16:39;100160.13;;;19.63;41.79
62237;BME280;69163;48.778;2.308;2023-08-30T06:19:04;100160.82;;;19.90;41.71
62237;BME280;69163;48.778;2.308;2023-08-30T06:21:29;100160.16;;;19.82;41.80
62237;BME280;69163;48.778;2.308;2023-08-30T06:23:54;100153.30;;;19.54;41.88
62237;BME280;69163;48.778;2.308;2023-08-30T06:26:19;100150.01;;;19.61;41.79
62237;BME280;69163;48.778;2.308;2023-08-30T06:28:45;100154.05;;;19.59;41.82
62237;BME280;69163;48.778;2.308;2023-08-30T06:31:10;100153.48;;;19.54;41.95
62237;BME280;69163;48.778;2.308;2023-08-30T06:33:35;100154.63;;;19.36;41.84
62237;BME280;69163;48.778;2.308;2023-08-30T06:36:00;100156.64;;;19.53;41.98
62237;BME280;69163;48.778;2.308;2023-08-30T06:38:25;100160.16;;;20.05;41.87
62237;BME280;69163;48.778;2.308;2023-08-30T06:40:50;100159.42;;;19.35;41.86
62237;BME280;69163;48.778;2.308;2023-08-30T06:43:15;100162.32;;;19.55;41.94
62237;BME280;69163;48.778;2.308;2023-08-30T06:45:42;100162.49;;;19.47;42.11
62237;BME280;69163;48.778;2.308;2023-08-30T06:48:07;100165.12;;;19.47;42.10
62237;BME280;69163;48.778;2.308;2023-08-30T06:50:31;100161.16;;;19.17;42.22
62237;BME280;69163;48.778;2.308;2023-08-30T06:52:56;100165.00;;;19.41;42.22
62237;BME280;69163;48.778;2.308;2023-08-30T06:55:22;100164.60;;;19.38;42.28
62237;BME280;69163;48.778;2.308;2023-08-30T06:57:48;100159.87;;;19.71;42.12
62237;BME280;69163;48.778;2.308;2023-08-30T07:00:13;100160.68;;;19.83;41.92
62237;BME280;69163;48.778;2.308;2023-08-30T07:02:38;100162.97;;;19.59;41.97
62237;BME280;69163;48.778;2.308;2023-08-30T07:05:02;100165.23;;;19.61;41.95
62237;BME280;69163;48.778;2.308;2023-08-30T07:07:27;100165.97;;;19.24;42.14
62237;BME280;69163;48.778;2.308;2023-08-30T07:09:53;100170.26;;;19.44;42.23
62237;BME280;69163;48.778;2.308;2023-08-30T07:12:18;100172.92;;;19.41;42.26
62237;BME280;69163;48.778;2.308;2023-08-30T07:14:43;100170.59;;;19.26;42.17
62237;BME280;69163;48.778;2.308;2023-08-30T07:17:08;100170.31;;;19.49;42.15
62237;BME280;69163;48.778;2.308;2023-08-30T07:19:34;100171.22;;;19.38;42.33
62237;BME280;69163;48.778;2.308;2023-08-30T07:21:59;100171.41;;;19.53;42.12
62237;BME280;69163;48.778;2.308;2023-08-30T07:24:24;100171.84;;;19.60;42.07
62237;BME280;69163;48.778;2.308;2023-08-30T07:26:49;100173.27;;;19.63;42.02
62237;BME280;69163;48.778;2.308;2023-08-30T07:29:14;100164.59;;;19.65;41.99
62237;BME280;69163;48.778;2.308;2023-08-30T07:31:40;100165.39;;;19.56;42.13
62237;BME280;69163;48.778;2.308;2023-08-30T07:34:05;100164.34;;;20.05;42.05
62237;BME280;69163;48.778;2.308;2023-08-30T07:36:31;100163.82;;;19.94;42.23
62237;BME280;69163;48.778;2.308;2023-08-30T07:38:55;100161.79;;;19.57;42.04
62237;BME280;69163;48.778;2.308;2023-08-30T07:41:20;100159.69;;;19.56;42.11
62237;BME280;69163;48.778;2.308;2023-08-30T07:43:45;100160.02;;;19.55;42.09
62237;BME280;69163;48.778;2.308;2023-08-30T07:46:11;100163.06;;;19.79;42.13
62237;BME280;69163;48.778;2.308;2023-08-30T07:48:37;100163.09;;;19.58;42.12
62237;BME280;69163;48.778;2.308;2023-08-30T07:51:01;100166.31;;;19.48;42.22
62237;BME280;69163;48.778;2.308;2023-08-30T07:53:26;100163.42;;;19.66;42.37
62237;BME280;69163;48.778;2.308;2023-08-30T07:55:51;100164.19;;;19.50;42.19
62237;BME280;69163;48.778;2.308;2023-08-30T07:58:17;100164.50;;;19.42;42.31
62237;BME280;69163;48.778;2.308;2023-08-30T08:00:41;100163.14;;;19.45;42.32
62237;BME280;69163;48.778;2.308;2023-08-30T08:03:07;100164.04;;;19.96;42.27
62237;BME280;69163;48.778;2.308;2023-08-30T08:05:32;100166.43;;;19.73;42.21
62237;BME280;69163;48.778;2.308;2023-08-30T08:08:00;100165.23;;;19.53;42.18
62237;BME280;69163;48.778;2.308;2023-08-30T08:10:22;100164.17;;;19.73;42.19
62237;BME280;69163;48.778;2.308;2023-08-30T08:12:47;100165.79;;;19.48;42.24
62237;BME280;69163;48.778;2.308;2023-08-30T08:15:13;100163.20;;;19.35;42.46
62237;BME280;69163;48.778;2.308;2023-08-30T08:17:39;100162.80;;;19.42;42.35
62237;BME280;69163;48.778;2.308;2023-08-30T08:20:05;100167.00;;;19.62;42.41
62237;BME280;69163;48.778;2.308;2023-08-30T08:22:28;100172.67;;;19.51;42.14
62237;BME280;69163;48.778;2.308;2023-08-30T08:24:54;100169.21;;;19.36;42.03
62237;BME280;69163;48.778;2.308;2023-08-30T08:27:19;100166.94;;;19.49;42.12
62237;BME280;69163;48.778;2.308;2023-08-30T08:29:44;100169.69;;;19.54;42.11
62237;BME280;69163;48.778;2.308;2023-08-30T08:32:10;100168.83;;;19.44;42.23
62237;BME280;69163;48.778;2.308;2023-08-30T08:34:35;100173.09;;;19.64;42.35
62237;BME280;69163;48.778;2.308;2023-08-30T08:37:00;100167.47;;;19.41;42.32
62237;BME280;69163;48.778;2.308;2023-08-30T08:39:25;100168.79;;;19.70;42.26
62237;BME280;69163;48.778;2.308;2023-08-30T08:41:51;100173.56;;;19.40;42.34
62237;BME280;69163;48.778;2.308;2023-08-30T08:44:16;100176.94;;;19.75;42.17
62237;BME280;69163;48.778;2.308;2023-08-30T08:46:41;100178.65;;;19.30;42.12
62237;BME280;69163;48.778;2.308;2023-08-30T08:49:09;100178.06;;;19.57;42.10
62237;BME280;69163;48.778;2.308;2023-08-30T08:51:32;100179.69;;;19.81;42.04
62237;BME280;69163;48.778;2.308;2023-08-30T08:54:02;100177.70;;;19.30;42.11
62237;BME280;69163;48.778;2.308;2023-08-30T08:56:21;100176.14;;;19.59;42.02
62237;BME280;69163;48.778;2.308;2023-08-30T08:58:47;100177.48;;;19.34;42.10
62237;BME280;69163;48.778;2.308;2023-08-30T09:01:12;100178.61;;;19.62;41.96
62237;BME280;69163;48.778;2.308;2023-08-30T09:03:38;100180.41;;;19.52;42.13
62237;BME280;69163;48.778;2.308;2023-08-30T09:06:03;100181.53;;;19.57;42.04
62237;BME280;69163;48.778;2.308;2023-08-30T09:08:28;100181.03;;;19.57;42.05
62237;BME280;69163;48.778;2.308;2023-08-30T09:10:53;100178.24;;;19.58;41.96
62237;BME280;69163;48.778;2.308;2023-08-30T09:13:18;100177.23;;;19.48;42.11
62237;BME280;69163;48.778;2.308;2023-08-30T09:15:43;100177.18;;;19.55;42.05
62237;BME280;69163;48.778;2.308;2023-08-30T09:18:16;100180.38;;;19.53;42.07
62237;BME280;69163;48.778;2.308;2023-08-30T09:20:34;100186.76;;;19.50;42.17
62237;BME280;69163;48.778;2.308;2023-08-30T09:22:59;100186.96;;;19.52;42.12
62237;BME280;69163;48.778;2.308;2023-08-30T09:25:25;100184.64;;;19.54;42.06
62237;BME280;69163;48.778;2.308;2023-08-30T09:27:49;100186.87;;;19.54;41.89
62237;BME280;69163;48.778;2.308;2023-08-30T09:30:14;100184.80;;;19.51;41.98
62237;BME280;69163;48.778;2.308;2023-08-30T09:32:40;100182.22;;;19.51;42.03
62237;BME280;69163;48.778;2.308;2023-08-30T09:35:05;100185.05;;;19.51;42.04
62237;BME280;69163;48.778;2.308;2023-08-30T09:37:31;100183.51;;;19.47;42.05
62237;BME280;69163;48.778;2.308;2023-08-30T09:39:55;100180.90;;;19.51;41.94
62237;BME280;69163;48.778;2.308;2023-08-30T09:42:20;100177.46;;;19.36;42.13
62237;BME280;69163;48.778;2.308;2023-08-30T09:44:45;100174.15;;;19.08;42.23
62237;BME280;69163;48.778;2.308;2023-08-30T09:47:13;100173.75;;;19.88;42.05
62237;BME280;69163;48.778;2.308;2023-08-30T09:49:41;100171.26;;;20.01;41.95
62237;BME280;69163;48.778;2.308;2023-08-30T09:52:03;100167.20;;;19.53;41.86
62237;BME280;69163;48.778;2.308;2023-08-30T09:54:27;100167.45;;;19.79;41.83
62237;BME280;69163;48.778;2.308;2023-08-30T09:56:51;100165.97;;;19.52;41.90
62237;BME280;69163;48.778;2.308;2023-08-30T09:59:16;100167.83;;;19.42;42.02
62237;BME280;69163;48.778;2.308;2023-08-30T10:01:42;100161.75;;;19.36;42.15
62237;BME280;69163;48.778;2.308;2023-08-30T10:04:08;100169.47;;;19.32;42.19
62237;BME280;69163;48.778;2.308;2023-08-30T10:06:33;100172.04;;;19.36;42.18
62237;BME280;69163;48.778;2.308;2023-08-30T10:08:59;100171.74;;;19.39;42.08
62237;BME280;69163;48.778;2.308;2023-08-30T10:11:24;100169.12;;;19.46;41.94
62237;BME280;69163;48.778;2.308;2023-08-30T10:13:49;100171.82;;;19.93;41.93
62237;BME280;69163;48.778;2.308;2023-08-30T10:16:18;100170.21;;;19.28;41.88
62237;BME280;69163;48.778;2.308;2023-08-30T10:18:40;100172.18;;;19.75;41.86
62237;BME280;69163;48.778;2.308;2023-08-30T10:21:06;100168.09;;;19.73;41.87
62237;BME280;69163;48.778;2.308;2023-08-30T10:23:29;100166.69;;;19.46;41.93
62237;BME280;69163;48.778;2.308;2023-08-30T10:25:54;100167.60;;;19.50;41.81
62237;BME280;69163;48.778;2.308;2023-08-30T10:28:19;100167.39;;;19.47;41.73
62237;BME280;69163;48.778;2.308;2023-08-30T10:30:44;100164.93;;;19.03;41.71
62237;BME280;69163;48.778;2.308;2023-08-30T10:33:13;100162.07;;;19.52;41.73
62237;BME280;69163;48.778;2.308;2023-08-30T10:35:34;100161.03;;;19.76;41.74
62237;BME280;69163;48.778;2.308;2023-08-30T10:38:00;100166.44;;;19.78;41.64
62237;BME280;69163;48.778;2.308;2023-08-30T10:40:25;100170.44;;;20.03;41.63
62237;BME280;69163;48.778;2.308;2023-08-30T10:43:00;100169.23;;;19.58;41.58
62237;BME280;69163;48.778;2.308;2023-08-30T10:45:23;100174.63;;;20.03;41.61
62237;BME280;69163;48.778;2.308;2023-08-30T10:47:41;100177.99;;;19.54;41.62
62237;BME280;69163;48.778;2.308;2023-08-30T10:50:08;100169.87;;;19.54;41.60
62237;BME280;69163;48.778;2.308;2023-08-30T10:52:32;100168.71;;;19.55;41.55
62237;BME280;69163;48.778;2.308;2023-08-30T10:55:04;100162.49;;;19.59;41.43
62237;BME280;69163;48.778;2.308;2023-08-30T10:57:25;100166.10;;;19.49;41.51
62237;BME280;69163;48.778;2.308;2023-08-30T11:00:05;100168.61;;;19.80;41.37
62237;BME280;69163;48.778;2.308;2023-08-30T11:02:13;100167.39;;;19.61;41.36
62237;BME280;69163;48.778;2.308;2023-08-30T11:04:40;100167.90;;;19.65;41.36
62237;BME280;69163;48.778;2.308;2023-08-30T11:07:03;100167.90;;;19.61;41.37
62237;BME280;69163;48.778;2.308;2023-08-30T11:09:28;100166.97;;;19.64;41.36
62237;BME280;69163;48.778;2.308;2023-08-30T11:11:53;100169.32;;;19.62;41.39
62237;BME280;69163;48.778;2.308;2023-08-30T11:14:19;100170.77;;;19.67;41.26
62237;BME280;69163;48.778;2.308;2023-08-30T11:16:44;100169.14;;;19.37;41.28
62237;BME280;69163;48.778;2.308;2023-08-30T11:19:09;100166.45;;;19.58;41.18
62237;BME280;69163;48.778;2.308;2023-08-30T11:21:36;100162.53;;;19.58;41.16
62237;BME280;69163;48.778;2.308;2023-08-30T11:24:00;100160.23;;;19.62;41.16
62237;BME280;69163;48.778;2.308;2023-08-30T11:26:25;100159.20;;;19.68;41.10
62237;BME280;69163;48.778;2.308;2023-08-30T11:28:49;100160.00;;;19.67;41.09
62237;BME280;69163;48.778;2.308;2023-08-30T11:31:19;100163.05;;;19.64;41.06
62237;BME280;69163;48.778;2.308;2023-08-30T11:36:05;100158.05;;;19.63;40.98
62237;BME280;69163;48.778;2.308;2023-08-30T11:38:30;100153.39;;;19.67;40.98
62237;BME280;69163;48.778;2.308;2023-08-30T11:40:56;100153.35;;;19.66;40.96
62237;BME280;69163;48.778;2.308;2023-08-30T11:43:21;100152.97;;;19.66;40.90
62237;BME280;69163;48.778;2.308;2023-08-30T11:45:46;100156.19;;;19.47;40.94
62237;BME280;69163;48.778;2.308;2023-08-30T11:48:11;100153.98;;;19.74;40.85
62237;BME280;69163;48.778;2.308;2023-08-30T11:50:37;100151.07;;;19.80;40.72
62237;BME280;69163;48.778;2.308;2023-08-30T11:53:01;100149.72;;;19.81;40.72
62237;BME280;69163;48.778;2.308;2023-08-30T11:55:26;100153.34;;;19.84;40.76
62237;BME280;69163;48.778;2.308;2023-08-30T11:57:52;100149.04;;;19.85;40.73
62237;BME280;69163;48.778;2.308;2023-08-30T12:00:19;100152.16;;;20.26;40.75
62237;BME280;69163;48.778;2.308;2023-08-30T12:02:42;100154.89;;;19.59;40.64
62237;BME280;69163;48.778;2.308;2023-08-30T12:05:11;100147.55;;;20.06;40.65
62237;BME280;69163;48.778;2.308;2023-08-30T12:07:33;100142.76;;;19.83;40.66
62237;BME280;69163;48.778;2.308;2023-08-30T12:10:04;100143.76;;;19.81;40.65
62237;BME280;69163;48.778;2.308;2023-08-30T12:12:23;100141.89;;;19.86;40.51
62237;BME280;69163;48.778;2.308;2023-08-30T12:14:56;100149.56;;;19.64;40.44
62237;BME280;69163;48.778;2.308;2023-08-30T12:17:14;100149.78;;;20.36;40.45
62237;BME280;69163;48.778;2.308;2023-08-30T12:19:39;100153.33;;;19.88;40.40
62237;BME280;69163;48.778;2.308;2023-08-30T12:22:04;100153.53;;;19.90;40.35
62237;BME280;69163;48.778;2.308;2023-08-30T12:26:55;100150.00;;;19.89;40.42
62237;BME280;69163;48.778;2.308;2023-08-30T12:29:20;100156.53;;;19.90;40.42
62237;BME280;69163;48.778;2.308;2023-08-30T12:31:45;100151.55;;;19.86;40.46
62237;BME280;69163;48.778;2.308;2023-08-30T12:34:10;100154.56;;;19.87;40.46
62237;BME280;69163;48.778;2.308;2023-08-30T12:36:35;100154.48;;;19.91;40.36
62237;BME280;69163;48.778;2.308;2023-08-30T12:39:01;100157.13;;;19.95;40.19
62237;BME280;69163;48.778;2.308;2023-08-30T12:41:26;100162.19;;;19.94;40.11
62237;BME280;69163;48.778;2.308;2023-08-30T12:43:51;100163.25;;;19.68;40.11